sensor_id;sensor_type;location;lat;lon;timestamp;pressure;altitude;pressure_sealevel;temperature;humidity
50790;BME280;37287;47.554;7.844;2022-09-03T00:02:11;97507.28;;;13.76;100.00
50790;BME280;37287;47.554;7.844;2022-09-03T00:04:48;97519.72;;;13.77;100.00
50790;BME280;37287;47.554;7.844;2022-09-03T00:07:27;97526.72;;;13.74;100.00
50790;BME280;37287;47.554;7.844;2022-09-03T00:10:04;97530.22;;;13.75;100.00
50790;BME280;37287;47.554;7.844;2022-09-03T00:12:38;97534.06;;;13.78;100.00
50790;BME280;37287;47.554;7.844;2022-09-03T00:15:13;97531.34;;;13.78;100.00
50790;BME280;37287;47.554;7.844;2022-09-03T00:17:53;97532.50;;;13.80;100.00
50790;BME280;37287;47.554;7.844;2022-09-03T00:23:06;97495.56;;;13.79;100.00
50790;BME280;37287;47.554;7.844;2022-09-03T00:25:39;97496.34;;;13.80;100.00
50790;BME280;37287;47.554;7.844;2022-09-03T00:28:25;97491.69;;;13.80;100.00
50790;BME280;37287;47.554;7.844;2022-09-03T00:33:45;97494.03;;;13.78;100.00
50790;BME280;37287;47.554;7.844;2022-09-03T00:36:23;97494.84;;;13.75;100.00
50790;BME280;37287;47.554;7.844;2022-09-03T00:38:53;97488.22;;;13.76;100.00
50790;BME280;37287;47.554;7.844;2022-09-03T00:41:32;97497.16;;;13.76;100.00
50790;BME280;37287;47.554;7.844;2022-09-03T00:47:26;97490.88;;;13.83;100.00
50790;BME280;37287;47.554;7.844;2022-09-03T00:50:06;97492.41;;;13.84;100.00
50790;BME280;37287;47.554;7.844;2022-09-03T00:57:57;97499.34;;;13.89;100.00
50790;BME280;37287;47.554;7.844;2022-09-03T01:00:30;97493.16;;;13.88;100.00
50790;BME280;37287;47.554;7.844;2022-09-03T01:05:49;97504.38;;;13.90;100.00
50790;BME280;37287;47.554;7.844;2022-09-03T01:11:29;97499.31;;;13.92;100.00
50790;BME280;37287;47.554;7.844;2022-09-03T01:25:53;97490.44;;;13.88;100.00
50790;BME280;37287;47.554;7.844;2022-09-03T01:31:10;97504.03;;;13.88;100.00
50790;BME280;37287;47.554;7.844;2022-09-03T01:36:59;97508.28;;;13.89;100.00
50790;BME280;37287;47.554;7.844;2022-09-03T01:50:53;97482.53;;;13.98;100.00
50790;BME280;37287;47.554;7.844;2022-09-03T01:58:43;97518.66;;;13.98;100.00
50790;BME280;37287;47.554;7.844;2022-09-03T02:01:17;97505.88;;;13.95;100.00
50790;BME280;37287;47.554;7.844;2022-09-03T02:03:50;97504.38;;;13.94;100.00
50790;BME280;37287;47.554;7.844;2022-09-03T02:06:17;97519.88;;;13.97;100.00
50790;BME280;37287;47.554;7.844;2022-09-03T02:08:46;97530.34;;;13.99;100.00
50790;BME280;37287;47.554;7.844;2022-09-03T02:11:14;97542.06;;;13.96;100.00
50790;BME280;37287;47.554;7.844;2022-09-03T02:13:44;97548.75;;;13.87;100.00
50790;BME280;37287;47.554;7.844;2022-09-03T02:16:17;97548.78;;;13.84;100.00
50790;BME280;37287;47.554;7.844;2022-09-03T02:18:50;97552.69;;;13.83;100.00
50790;BME280;37287;47.554;7.844;2022-09-03T02:21:21;97557.34;;;13.82;100.00
50790;BME280;37287;47.554;7.844;2022-09-03T02:23:48;97558.91;;;13.83;100.00
50790;BME280;37287;47.554;7.844;2022-09-03T02:26:22;97551.09;;;13.85;100.00
50790;BME280;37287;47.554;7.844;2022-09-03T02:28:52;97542.91;;;13.85;100.00
50790;BME280;37287;47.554;7.844;2022-09-03T02:31:19;97546.78;;;13.88;100.00
50790;BME280;37287;47.554;7.844;2022-09-03T02:33:47;97548.38;;;13.85;100.00
50790;BME280;37287;47.554;7.844;2022-09-03T02:36:17;97542.50;;;13.87;100.00
50790;BME280;37287;47.554;7.844;2022-09-03T02:38:45;97540.59;;;13.87;100.00
50790;BME280;37287;47.554;7.844;2022-09-03T02:41:14;97547.56;;;13.88;100.00
50790;BME280;37287;47.554;7.844;2022-09-03T02:44:06;97536.72;;;13.85;100.00
50790;BME280;37287;47.554;7.844;2022-09-03T02:46:39;97547.59;;;13.85;100.00
50790;BME280;37287;47.554;7.844;2022-09-03T02:49:07;97558.84;;;13.87;100.00
50790;BME280;37287;47.554;7.844;2022-09-03T02:51:36;97559.63;;;13.87;100.00
50790;BME280;37287;47.554;7.844;2022-09-03T02:54:11;97544.84;;;13.88;100.00
50790;BME280;37287;47.554;7.844;2022-09-03T02:56:37;97548.69;;;13.91;100.00
50790;BME280;37287;47.554;7.844;2022-09-03T02:59:07;97555.66;;;13.96;100.00
50790;BME280;37287;47.554;7.844;2022-09-03T03:01:38;97554.44;;;14.00;100.00
50790;BME280;37287;47.554;7.844;2022-09-03T03:04:07;97548.91;;;14.07;100.00
50790;BME280;37287;47.554;7.844;2022-09-03T03:06:34;97547.31;;;14.10;100.00
50790;BME280;37287;47.554;7.844;2022-09-03T03:09:00;97539.19;;;14.06;100.00
50790;BME280;37287;47.554;7.844;2022-09-03T03:11:31;97549.66;;;14.08;100.00
50790;BME280;37287;47.554;7.844;2022-09-03T03:13:58;97546.94;;;14.08;100.00
50790;BME280;37287;47.554;7.844;2022-09-03T03:16:28;97545.44;;;14.07;100.00
50790;BME280;37287;47.554;7.844;2022-09-03T03:18:57;97550.06;;;14.10;100.00
50790;BME280;37287;47.554;7.844;2022-09-03T03:21:24;97548.47;;;14.13;100.00
50790;BME280;37287;47.554;7.844;2022-09-03T03:23:51;97543.75;;;14.17;100.00
50790;BME280;37287;47.554;7.844;2022-09-03T03:26:19;97545.59;;;14.23;100.00
50790;BME280;37287;47.554;7.844;2022-09-03T03:28:48;97539.28;;;14.34;100.00
50790;BME280;37287;47.554;7.844;2022-09-03T03:31:20;97541.47;;;14.42;100.00
50790;BME280;37287;47.554;7.844;2022-09-03T03:33:55;97544.16;;;14.46;100.00
50790;BME280;37287;47.554;7.844;2022-09-03T03:36:23;97538.69;;;14.46;100.00
50790;BME280;37287;47.554;7.844;2022-09-03T03:38:55;97541.72;;;14.52;100.00
50790;BME280;37287;47.554;7.844;2022-09-03T03:41:24;97537.50;;;14.51;100.00
50790;BME280;37287;47.554;7.844;2022-09-03T03:43:57;97534.03;;;14.47;100.00
50790;BME280;37287;47.554;7.844;2022-09-03T03:46:28;97537.19;;;14.45;100.00
50790;BME280;37287;47.554;7.844;2022-09-03T03:48:55;97544.56;;;14.44;100.00
50790;BME280;37287;47.554;7.844;2022-09-03T03:51:22;97540.31;;;14.43;100.00
50790;BME280;37287;47.554;7.844;2022-09-03T03:53:53;97533.66;;;14.44;100.00
50790;BME280;37287;47.554;7.844;2022-09-03T03:56:21;97526.31;;;14.41;100.00
50790;BME280;37287;47.554;7.844;2022-09-03T03:58:51;97527.50;;;14.40;100.00
50790;BME280;37287;47.554;7.844;2022-09-03T04:01:20;97532.53;;;14.42;100.00
50790;BME280;37287;47.554;7.844;2022-09-03T04:03:47;97531.31;;;14.47;100.00
50790;BME280;37287;47.554;7.844;2022-09-03T04:06:17;97528.53;;;14.50;100.00
50790;BME280;37287;47.554;7.844;2022-09-03T04:08:52;97532.78;;;14.55;100.00
50790;BME280;37287;47.554;7.844;2022-09-03T04:11:23;97531.16;;;14.57;100.00
50790;BME280;37287;47.554;7.844;2022-09-03T04:13:51;97521.47;;;14.56;100.00
50790;BME280;37287;47.554;7.844;2022-09-03T04:16:20;97516.00;;;14.56;100.00
50790;BME280;37287;47.554;7.844;2022-09-03T04:18:47;97523.78;;;14.58;100.00
50790;BME280;37287;47.554;7.844;2022-09-03T04:21:22;97520.59;;;14.63;100.00
50790;BME280;37287;47.554;7.844;2022-09-03T04:23:50;97524.47;;;14.66;100.00
50790;BME280;37287;47.554;7.844;2022-09-03T04:26:21;97517.47;;;14.65;100.00
50790;BME280;37287;47.554;7.844;2022-09-03T04:28:48;97518.25;;;14.65;100.00
50790;BME280;37287;47.554;7.844;2022-09-03T04:31:19;97517.75;;;14.70;100.00
50790;BME280;37287;47.554;7.844;2022-09-03T04:33:46;97526.25;;;14.76;100.00
50790;BME280;37287;47.554;7.844;2022-09-03T04:36:15;97514.88;;;14.81;100.00
50790;BME280;37287;47.554;7.844;2022-09-03T04:38:44;97528.06;;;14.86;100.00
50790;BME280;37287;47.554;7.844;2022-09-03T04:41:16;97514.72;;;14.92;100.00
50790;BME280;37287;47.554;7.844;2022-09-03T04:43:46;97515.50;;;14.92;100.00
50790;BME280;37287;47.554;7.844;2022-09-03T04:46:18;97515.88;;;14.94;100.00
50790;BME280;37287;47.554;7.844;2022-09-03T04:48:47;97511.94;;;14.95;100.00
50790;BME280;37287;47.554;7.844;2022-09-03T04:51:24;97505.72;;;14.95;100.00
50790;BME280;37287;47.554;7.844;2022-09-03T04:53:57;97503.72;;;14.99;100.00
50790;BME280;37287;47.554;7.844;2022-09-03T04:56:33;97511.09;;;14.99;100.00
50790;BME280;37287;47.554;7.844;2022-09-03T04:59:09;97518.59;;;14.94;100.00
50790;BME280;37287;47.554;7.844;2022-09-03T05:01:40;97509.63;;;14.94;100.00
50790;BME280;37287;47.554;7.844;2022-09-03T05:04:07;97520.94;;;14.92;100.00
50790;BME280;37287;47.554;7.844;2022-09-03T05:06:35;97514.72;;;14.92;100.00
50790;BME280;37287;47.554;7.844;2022-09-03T05:09:03;97518.63;;;14.91;100.00
50790;BME280;37287;47.554;7.844;2022-09-03T05:11:30;97519.81;;;14.90;100.00
50790;BME280;37287;47.554;7.844;2022-09-03T05:13:58;97520.22;;;14.88;100.00
50790;BME280;37287;47.554;7.844;2022-09-03T05:16:29;97533.84;;;14.88;100.00
50790;BME280;37287;47.554;7.844;2022-09-03T05:18:59;97528.00;;;14.90;100.00
50790;BME280;37287;47.554;7.844;2022-09-03T05:21:27;97528.38;;;14.92;100.00
50790;BME280;37287;47.554;7.844;2022-09-03T05:23:55;97530.59;;;14.97;100.00
50790;BME280;37287;47.554;7.844;2022-09-03T05:26:24;97527.38;;;15.06;100.00
50790;BME280;37287;47.554;7.844;2022-09-03T05:28:56;97525.25;;;15.17;100.00
50790;BME280;37287;47.554;7.844;2022-09-03T05:31:26;97518.06;;;15.27;100.00
50790;BME280;37287;47.554;7.844;2022-09-03T05:33:57;97527.47;;;15.22;100.00
50790;BME280;37287;47.554;7.844;2022-09-03T05:36:33;97525.59;;;15.19;100.00
50790;BME280;37287;47.554;7.844;2022-09-03T05:39:01;97528.38;;;15.16;100.00
50790;BME280;37287;47.554;7.844;2022-09-03T05:41:28;97530.00;;;15.13;100.00
50790;BME280;37287;47.554;7.844;2022-09-03T05:43:56;97530.81;;;15.10;100.00
50790;BME280;37287;47.554;7.844;2022-09-03T05:46:30;97517.22;;;15.06;100.00
50790;BME280;37287;47.554;7.844;2022-09-03T05:49:05;97521.50;;;15.07;100.00
50790;BME280;37287;47.554;7.844;2022-09-03T05:51:33;97518.78;;;15.07;100.00
50790;BME280;37287;47.554;7.844;2022-09-03T05:54:02;97524.56;;;15.09;100.00
50790;BME280;37287;47.554;7.844;2022-09-03T05:56:33;97509.81;;;15.07;100.00
50790;BME280;37287;47.554;7.844;2022-09-03T05:59:03;97511.38;;;15.08;100.00
50790;BME280;37287;47.554;7.844;2022-09-03T06:01:34;97514.47;;;15.10;100.00
50790;BME280;37287;47.554;7.844;2022-09-03T06:04:05;97502.72;;;15.13;100.00
50790;BME280;37287;47.554;7.844;2022-09-03T06:06:36;97506.22;;;15.13;100.00
50790;BME280;37287;47.554;7.844;2022-09-03T06:09:07;97510.13;;;15.12;100.00
50790;BME280;37287;47.554;7.844;2022-09-03T06:11:37;97501.50;;;15.14;100.00
50790;BME280;37287;47.554;7.844;2022-09-03T06:14:06;97500.75;;;15.13;100.00
50790;BME280;37287;47.554;7.844;2022-09-03T06:16:42;97515.16;;;15.14;100.00
50790;BME280;37287;47.554;7.844;2022-09-03T06:19:10;97506.97;;;15.14;100.00
50790;BME280;37287;47.554;7.844;2022-09-03T06:21:38;97510.47;;;15.15;100.00
50790;BME280;37287;47.554;7.844;2022-09-03T06:24:17;97509.59;;;15.21;100.00
50790;BME280;37287;47.554;7.844;2022-09-03T06:26:45;97510.28;;;15.25;100.00
50790;BME280;37287;47.554;7.844;2022-09-03T06:29:14;97509.41;;;15.32;100.00
50790;BME280;37287;47.554;7.844;2022-09-03T06:31:41;97510.81;;;15.40;100.00
50790;BME280;37287;47.554;7.844;2022-09-03T06:34:08;97507.13;;;15.51;100.00
50790;BME280;37287;47.554;7.844;2022-09-03T06:36:34;97508.06;;;15.64;100.00
50790;BME280;37287;47.554;7.844;2022-09-03T06:39:01;97503.59;;;17.04;100.00
50790;BME280;37287;47.554;7.844;2022-09-03T06:41:31;97504.50;;;18.05;100.00
50790;BME280;37287;47.554;7.844;2022-09-03T06:44:02;97508.78;;;18.06;100.00
50790;BME280;37287;47.554;7.844;2022-09-03T06:46:31;97508.53;;;18.81;99.76
50790;BME280;37287;47.554;7.844;2022-09-03T06:48:58;97501.66;;;19.37;93.82
50790;BME280;37287;47.554;7.844;2022-09-03T06:51:27;97497.50;;;19.90;90.30
50790;BME280;37287;47.554;7.844;2022-09-03T06:54:00;97502.66;;;20.10;87.47
50790;BME280;37287;47.554;7.844;2022-09-03T06:56:26;97505.22;;;20.58;87.15
50790;BME280;37287;47.554;7.844;2022-09-03T06:58:57;97511.81;;;20.29;86.38
50790;BME280;37287;47.554;7.844;2022-09-03T07:01:30;97507.84;;;19.51;88.41
50790;BME280;37287;47.554;7.844;2022-09-03T07:04:01;97508.88;;;20.23;88.95
50790;BME280;37287;47.554;7.844;2022-09-03T07:06:36;97501.44;;;20.65;83.09
50790;BME280;37287;47.554;7.844;2022-09-03T07:09:05;97497.44;;;20.97;84.22
50790;BME280;37287;47.554;7.844;2022-09-03T07:11:35;97495.81;;;21.46;81.51
50790;BME280;37287;47.554;7.844;2022-09-03T07:14:03;97497.75;;;21.08;80.41
50790;BME280;37287;47.554;7.844;2022-09-03T07:16:35;97501.13;;;21.22;78.60
50790;BME280;37287;47.554;7.844;2022-09-03T07:19:03;97505.41;;;21.13;76.27
50790;BME280;37287;47.554;7.844;2022-09-03T07:21:32;97510.50;;;20.43;82.53
50790;BME280;37287;47.554;7.844;2022-09-03T07:24:03;97515.22;;;19.76;86.96
50790;BME280;37287;47.554;7.844;2022-09-03T07:26:40;97522.66;;;19.18;90.02
50790;BME280;37287;47.554;7.844;2022-09-03T07:29:09;97519.28;;;18.76;91.05
50790;BME280;37287;47.554;7.844;2022-09-03T07:31:39;97520.91;;;18.47;92.57
50790;BME280;37287;47.554;7.844;2022-09-03T07:34:10;97514.75;;;18.30;95.33
50790;BME280;37287;47.554;7.844;2022-09-03T07:36:40;97509.28;;;18.30;96.30
50790;BME280;37287;47.554;7.844;2022-09-03T07:39:11;97521.03;;;18.44;94.84
50790;BME280;37287;47.554;7.844;2022-09-03T07:41:38;97523.09;;;18.27;96.06
50790;BME280;37287;47.554;7.844;2022-09-03T07:44:07;97529.75;;;18.13;96.21
50790;BME280;37287;47.554;7.844;2022-09-03T07:46:36;97527.16;;;17.93;98.29
50790;BME280;37287;47.554;7.844;2022-09-03T07:49:04;97521.16;;;17.81;98.30
50790;BME280;37287;47.554;7.844;2022-09-03T07:51:36;97512.81;;;17.72;100.00
50790;BME280;37287;47.554;7.844;2022-09-03T07:54:06;97522.16;;;17.75;99.95
50790;BME280;37287;47.554;7.844;2022-09-03T07:56:38;97526.41;;;17.76;100.00
50790;BME280;37287;47.554;7.844;2022-09-03T07:59:15;97525.31;;;17.73;99.33
50790;BME280;37287;47.554;7.844;2022-09-03T08:01:42;97517.34;;;17.79;100.00
50790;BME280;37287;47.554;7.844;2022-09-03T08:04:09;97531.16;;;18.04;100.00
50790;BME280;37287;47.554;7.844;2022-09-03T08:06:49;97538.06;;;18.22;98.58
50790;BME280;37287;47.554;7.844;2022-09-03T08:09:22;97543.94;;;18.50;97.70
50790;BME280;37287;47.554;7.844;2022-09-03T08:11:49;97549.53;;;18.59;95.17
50790;BME280;37287;47.554;7.844;2022-09-03T08:14:17;97550.91;;;18.93;95.96
50790;BME280;37287;47.554;7.844;2022-09-03T08:16:45;97541.34;;;19.11;93.51
50790;BME280;37287;47.554;7.844;2022-09-03T08:19:16;97544.97;;;19.07;93.45
50790;BME280;37287;47.554;7.844;2022-09-03T08:21:46;97549.59;;;18.98;93.61
50790;BME280;37287;47.554;7.844;2022-09-03T08:24:18;97555.06;;;18.98;93.62
50790;BME280;37287;47.554;7.844;2022-09-03T08:26:47;97567.97;;;18.84;94.61
50790;BME280;37287;47.554;7.844;2022-09-03T08:29:18;97571.16;;;18.57;94.47
50790;BME280;37287;47.554;7.844;2022-09-03T08:34:15;97556.44;;;18.38;96.66
50790;BME280;37287;47.554;7.844;2022-09-03T08:36:43;97563.19;;;18.20;97.37
50790;BME280;37287;47.554;7.844;2022-09-03T08:39:12;97561.47;;;17.97;99.92
50790;BME280;37287;47.554;7.844;2022-09-03T08:41:55;97565.53;;;17.76;100.00
50790;BME280;37287;47.554;7.844;2022-09-03T08:44:28;97569.56;;;17.55;100.00
50790;BME280;37287;47.554;7.844;2022-09-03T08:47:18;97593.19;;;17.32;100.00
50790;BME280;37287;47.554;7.844;2022-09-03T08:50:08;97620.53;;;17.16;100.00
50790;BME280;37287;47.554;7.844;2022-09-03T08:52:48;97677.81;;;17.07;100.00
50790;BME280;37287;47.554;7.844;2022-09-03T08:55:25;97699.97;;;16.92;100.00
50790;BME280;37287;47.554;7.844;2022-09-03T09:00:49;97699.97;;;16.28;100.00
50790;BME280;37287;47.554;7.844;2022-09-03T09:06:05;97724.38;;;15.68;100.00
50790;BME280;37287;47.554;7.844;2022-09-03T09:08:47;97721.06;;;15.53;100.00
50790;BME280;37287;47.554;7.844;2022-09-03T09:20:34;97706.47;;;15.40;100.00
50790;BME280;37287;47.554;7.844;2022-09-03T09:23:06;97710.31;;;15.42;100.00
50790;BME280;37287;47.554;7.844;2022-09-03T09:25:46;97700.19;;;15.43;100.00
50790;BME280;37287;47.554;7.844;2022-09-03T09:28:23;97695.84;;;15.45;100.00
50790;BME280;37287;47.554;7.844;2022-09-03T09:31:09;97695.78;;;15.49;100.00
50790;BME280;37287;47.554;7.844;2022-09-03T09:33:37;97689.91;;;15.51;100.00
50790;BME280;37287;47.554;7.844;2022-09-03T09:36:07;97693.78;;;15.53;100.00
50790;BME280;37287;47.554;7.844;2022-09-03T09:38:36;97699.66;;;15.52;100.00
50790;BME280;37287;47.554;7.844;2022-09-03T09:41:20;97712.88;;;15.53;100.00
50790;BME280;37287;47.554;7.844;2022-09-03T09:44:00;97724.94;;;15.56;100.00
50790;BME280;37287;47.554;7.844;2022-09-03T09:46:34;97734.28;;;15.55;100.00
50790;BME280;37287;47.554;7.844;2022-09-03T09:49:07;97730.38;;;15.56;100.00
50790;BME280;37287;47.554;7.844;2022-09-03T09:51:43;97731.84;;;15.64;100.00
50790;BME280;37287;47.554;7.844;2022-09-03T09:54:16;97741.81;;;15.74;100.00
50790;BME280;37287;47.554;7.844;2022-09-03T09:57:02;97751.88;;;15.81;100.00
50790;BME280;37287;47.554;7.844;2022-09-03T09:59:31;97734.63;;;15.88;100.00
50790;BME280;37287;47.554;7.844;2022-09-03T10:02:22;97717.28;;;15.98;100.00
50790;BME280;37287;47.554;7.844;2022-09-03T10:05:00;97727.97;;;15.89;100.00
50790;BME280;37287;47.554;7.844;2022-09-03T10:07:29;97740.09;;;15.88;100.00
50790;BME280;37287;47.554;7.844;2022-09-03T10:13:11;97738.13;;;15.88;100.00
50790;BME280;37287;47.554;7.844;2022-09-03T10:16:01;97732.53;;;15.95;100.00
50790;BME280;37287;47.554;7.844;2022-09-03T10:18:42;97729.16;;;16.11;100.00
50790;BME280;37287;47.554;7.844;2022-09-03T10:21:19;97732.22;;;16.37;100.00
50790;BME280;37287;47.554;7.844;2022-09-03T10:24:03;97743.72;;;16.48;100.00
50790;BME280;37287;47.554;7.844;2022-09-03T10:26:53;97749.09;;;16.56;100.00
50790;BME280;37287;47.554;7.844;2022-09-03T10:29:22;97745.09;;;16.60;100.00
50790;BME280;37287;47.554;7.844;2022-09-03T10:32:31;97745.50;;;16.79;100.00
50790;BME280;37287;47.554;7.844;2022-09-03T10:37:54;97741.03;;;17.98;100.00
50790;BME280;37287;47.554;7.844;2022-09-03T10:46:05;97711.22;;;19.05;100.00
50790;BME280;37287;47.554;7.844;2022-09-03T10:48:52;97717.03;;;19.07;100.00
50790;BME280;37287;47.554;7.844;2022-09-03T10:51:50;97729.38;;;19.54;100.00
50790;BME280;37287;47.554;7.844;2022-09-03T10:54:33;97729.00;;;20.16;99.50
50790;BME280;37287;47.554;7.844;2022-09-03T11:00:08;97730.25;;;20.72;91.05
50790;BME280;37287;47.554;7.844;2022-09-03T11:05:20;97719.63;;;21.37;89.71
50790;BME280;37287;47.554;7.844;2022-09-03T11:07:57;97713.44;;;21.55;85.32
50790;BME280;37287;47.554;7.844;2022-09-03T11:10:32;97710.63;;;21.15;86.91
50790;BME280;37287;47.554;7.844;2022-09-03T11:13:05;97718.34;;;21.29;87.45
50790;BME280;37287;47.554;7.844;2022-09-03T11:15:48;97714.34;;;21.21;88.97
50790;BME280;37287;47.554;7.844;2022-09-03T11:18:40;97704.63;;;21.70;85.93
50790;BME280;37287;47.554;7.844;2022-09-03T11:21:13;97707.97;;;22.61;84.04
50790;BME280;37287;47.554;7.844;2022-09-03T11:23:50;97698.31;;;23.36;77.11
50790;BME280;37287;47.554;7.844;2022-09-03T11:26:23;97694.16;;;23.65;78.38
50790;BME280;37287;47.554;7.844;2022-09-03T11:34:25;97683.78;;;23.60;76.41
50790;BME280;37287;47.554;7.844;2022-09-03T11:37:16;97689.00;;;23.58;78.12
50790;BME280;37287;47.554;7.844;2022-09-03T11:39:44;97689.56;;;24.19;74.43
50790;BME280;37287;47.554;7.844;2022-09-03T11:42:27;97688.53;;;24.71;75.55
50790;BME280;37287;47.554;7.844;2022-09-03T11:45:44;97679.56;;;25.21;71.90
50790;BME280;37287;47.554;7.844;2022-09-03T11:48:17;97681.66;;;24.81;73.90
50790;BME280;37287;47.554;7.844;2022-09-03T11:50:54;97675.44;;;25.16;72.21
50790;BME280;37287;47.554;7.844;2022-09-03T11:53:24;97678.25;;;24.47;76.29
50790;BME280;37287;47.554;7.844;2022-09-03T11:58:36;97667.63;;;25.00;73.26
50790;BME280;37287;47.554;7.844;2022-09-03T12:01:08;97653.94;;;25.41;71.24
50790;BME280;37287;47.554;7.844;2022-09-03T12:03:50;97663.34;;;24.99;70.73
50790;BME280;37287;47.554;7.844;2022-09-03T12:09:36;97655.75;;;24.00;76.89
50790;BME280;37287;47.554;7.844;2022-09-03T12:17:51;97662.97;;;24.76;68.67
50790;BME280;37287;47.554;7.844;2022-09-03T12:20:41;97662.72;;;24.50;74.46
50790;BME280;37287;47.554;7.844;2022-09-03T12:23:13;97660.63;;;24.60;72.30
50790;BME280;37287;47.554;7.844;2022-09-03T12:25:44;97664.41;;;24.47;72.56
50790;BME280;37287;47.554;7.844;2022-09-03T12:28:20;97664.53;;;24.38;71.45
50790;BME280;37287;47.554;7.844;2022-09-03T12:30:49;97654.81;;;24.58;73.43
50790;BME280;37287;47.554;7.844;2022-09-03T12:33:21;97650.69;;;25.28;71.44
50790;BME280;37287;47.554;7.844;2022-09-03T12:35:59;97660.47;;;25.58;67.94
50790;BME280;37287;47.554;7.844;2022-09-03T12:38:29;97657.41;;;25.21;72.29
50790;BME280;37287;47.554;7.844;2022-09-03T12:41:25;97657.31;;;25.15;70.82
50790;BME280;37287;47.554;7.844;2022-09-03T12:43:56;97652.97;;;25.44;72.13
50790;BME280;37287;47.554;7.844;2022-09-03T12:46:31;97655.56;;;25.18;70.75
50790;BME280;37287;47.554;7.844;2022-09-03T12:49:04;97645.94;;;25.13;74.11
50790;BME280;37287;47.554;7.844;2022-09-03T12:52:15;97638.84;;;25.27;70.13
50790;BME280;37287;47.554;7.844;2022-09-03T13:00:47;97632.09;;;25.49;70.47
50790;BME280;37287;47.554;7.844;2022-09-03T13:03:22;97623.56;;;25.32;73.14
50790;BME280;37287;47.554;7.844;2022-09-03T13:06:17;97620.00;;;25.31;73.73
50790;BME280;37287;47.554;7.844;2022-09-03T13:08:51;97622.41;;;25.23;71.35
50790;BME280;37287;47.554;7.844;2022-09-03T13:11:21;97627.19;;;25.38;73.75
50790;BME280;37287;47.554;7.844;2022-09-03T13:14:04;97612.84;;;25.39;68.91
50790;BME280;37287;47.554;7.844;2022-09-03T13:16:45;97607.13;;;25.28;61.62
50790;BME280;37287;47.554;7.844;2022-09-03T13:22:02;97600.16;;;25.33;73.33
50790;BME280;37287;47.554;7.844;2022-09-03T13:24:54;97605.84;;;25.29;69.88
50790;BME280;37287;47.554;7.844;2022-09-03T13:27:40;97610.16;;;25.30;70.90
50790;BME280;37287;47.554;7.844;2022-09-03T13:30:12;97603.41;;;25.16;73.41
50790;BME280;37287;47.554;7.844;2022-09-03T13:33:00;97609.34;;;25.09;69.78
50790;BME280;37287;47.554;7.844;2022-09-03T13:43:54;97611.38;;;24.34;68.84
50790;BME280;37287;47.554;7.844;2022-09-03T13:55:03;97590.78;;;24.35;69.85
50790;BME280;37287;47.554;7.844;2022-09-03T13:57:50;97593.59;;;23.86;68.34
50790;BME280;37287;47.554;7.844;2022-09-03T14:00:41;97599.16;;;23.62;71.77
50790;BME280;37287;47.554;7.844;2022-09-03T14:03:33;97597.16;;;23.63;69.23
50790;BME280;37287;47.554;7.844;2022-09-03T14:12:13;97574.94;;;24.20;66.27
50790;BME280;37287;47.554;7.844;2022-09-03T14:14:56;97584.03;;;24.66;65.21
50790;BME280;37287;47.554;7.844;2022-09-03T14:20:03;97571.28;;;25.04;65.14
50790;BME280;37287;47.554;7.844;2022-09-03T14:25:17;97569.34;;;25.10;65.84
50790;BME280;37287;47.554;7.844;2022-09-03T14:27:46;97567.72;;;25.39;66.13
50790;BME280;37287;47.554;7.844;2022-09-03T14:33:23;97574.13;;;25.66;60.66
50790;BME280;37287;47.554;7.844;2022-09-03T14:39:44;97564.75;;;25.63;61.59
50790;BME280;37287;47.554;7.844;2022-09-03T14:46:17;97559.72;;;25.26;61.44
50790;BME280;37287;47.554;7.844;2022-09-03T14:56:49;97556.88;;;23.71;66.73
50790;BME280;37287;47.554;7.844;2022-09-03T14:59:41;97563.47;;;23.49;67.12
50790;BME280;37287;47.554;7.844;2022-09-03T15:07:59;97582.75;;;23.01;68.38
50790;BME280;37287;47.554;7.844;2022-09-03T15:10:44;97581.25;;;22.91;67.26
50790;BME280;37287;47.554;7.844;2022-09-03T15:13:19;97570.09;;;22.76;65.53
50790;BME280;37287;47.554;7.844;2022-09-03T15:15:59;97557.09;;;22.67;68.32
50790;BME280;37287;47.554;7.844;2022-09-03T15:18:41;97558.38;;;22.57;68.21
50790;BME280;37287;47.554;7.844;2022-09-03T15:26:58;97555.34;;;22.36;69.15
50790;BME280;37287;47.554;7.844;2022-09-03T15:35:43;97577.88;;;22.07;69.89
50790;BME280;37287;47.554;7.844;2022-09-03T15:41:04;97576.22;;;21.91;70.84
50790;BME280;37287;47.554;7.844;2022-09-03T15:43:37;97582.03;;;21.84;71.10
50790;BME280;37287;47.554;7.844;2022-09-03T15:49:04;97590.91;;;21.78;71.31
50790;BME280;37287;47.554;7.844;2022-09-03T15:51:45;97588.13;;;21.78;71.76
50790;BME280;37287;47.554;7.844;2022-09-03T15:57:10;97601.31;;;21.84;71.61
50790;BME280;37287;47.554;7.844;2022-09-03T15:59:40;97604.84;;;21.93;70.76
50790;BME280;37287;47.554;7.844;2022-09-03T16:02:17;97608.66;;;22.14;70.17
50790;BME280;37287;47.554;7.844;2022-09-03T16:07:47;97611.44;;;22.33;71.79
50790;BME280;37287;47.554;7.844;2022-09-03T16:10:38;97609.56;;;22.21;73.24
50790;BME280;37287;47.554;7.844;2022-09-03T16:16:03;97611.72;;;22.26;75.19
50790;BME280;37287;47.554;7.844;2022-09-03T16:21:44;97614.94;;;22.43;74.70
50790;BME280;37287;47.554;7.844;2022-09-03T16:24:30;97624.31;;;22.27;75.69
50790;BME280;37287;47.554;7.844;2022-09-03T16:27:14;97622.44;;;22.05;75.70
50790;BME280;37287;47.554;7.844;2022-09-03T16:30:11;97622.59;;;21.92;76.53
50790;BME280;37287;47.554;7.844;2022-09-03T16:32:48;97618.00;;;21.80;78.34
50790;BME280;37287;47.554;7.844;2022-09-03T16:38:02;97609.81;;;21.48;83.41
50790;BME280;37287;47.554;7.844;2022-09-03T16:49:32;97625.41;;;21.02;82.45
50790;BME280;37287;47.554;7.844;2022-09-03T16:55:51;97624.41;;;20.64;85.12
50790;BME280;37287;47.554;7.844;2022-09-03T16:58:21;97615.94;;;20.49;84.43
50790;BME280;37287;47.554;7.844;2022-09-03T17:01:06;97618.16;;;20.41;84.62
50790;BME280;37287;47.554;7.844;2022-09-03T17:09:12;97628.00;;;20.07;85.41